createdAt,value
2022-12-19T00:01:16.919Z,16.60
2022-12-19T00:06:18.678Z,16.64
2022-12-19T00:11:21.497Z,16.52
2022-12-19T00:16:24.273Z,16.75
2022-12-19T00:21:27.968Z,16.73
2022-12-19T00:26:30.790Z,16.99
2022-12-19T00:31:33.301Z,16.93
2022-12-19T00:36:35.167Z,16.94
2022-12-19T00:41:37.783Z,16.94
2022-12-19T00:46:43.888Z,16.78
2022-12-19T00:51:56.692Z,16.82
2022-12-19T00:56:58.067Z,16.62
2022-12-19T01:01:59.583Z,16.87
2022-12-19T01:07:02.328Z,16.68
2022-12-19T01:12:24.416Z,16.46
2022-12-19T01:17:26.342Z,16.70
2022-12-19T01:22:27.712Z,16.58
2022-12-19T01:27:29.077Z,16.54
2022-12-19T01:32:30.488Z,16.60
2022-12-19T01:37:31.875Z,16.53
2022-12-19T01:42:36.716Z,16.47
2022-12-19T01:48:15.932Z,16.60
2022-12-19T01:53:17.303Z,16.51
2022-12-19T01:58:18.643Z,16.27
2022-12-19T02:03:29.599Z,16.27
2022-12-19T02:08:30.995Z,16.42
2022-12-19T02:13:34.280Z,16.13
2022-12-19T02:18:51.791Z,15.92
2022-12-19T02:24:20.937Z,15.85
2022-12-19T02:29:43.904Z,15.97
2022-12-19T02:40:26.853Z,15.57
2022-12-19T02:45:30.839Z,15.60
2022-12-19T02:50:39.140Z,15.86
2022-12-19T02:56:02.160Z,15.78
2022-12-19T03:01:27.581Z,15.56
2022-12-19T03:06:40.720Z,15.69
2022-12-19T03:11:42.992Z,16.23
2022-12-19T03:16:44.415Z,16.23
2022-12-19T03:21:48.997Z,16.14
2022-12-19T03:26:54.567Z,16.32
2022-12-19T03:31:56.847Z,16.51
2022-12-19T03:37:01.443Z,16.54
2022-12-19T03:42:21.473Z,16.46
2022-12-19T03:47:40.649Z,16.37
2022-12-19T03:52:46.949Z,16.21
2022-12-19T03:57:54.774Z,16.35
2022-12-19T04:02:56.162Z,16.15
2022-12-19T04:08:00.465Z,16.43
2022-12-19T04:13:45.344Z,16.50
2022-12-19T04:18:48.086Z,16.58
2022-12-19T04:23:52.807Z,16.70
2022-12-19T04:28:55.856Z,16.67
2022-12-19T04:33:57.234Z,16.66
2022-12-19T04:38:58.638Z,16.47
2022-12-19T04:44:00.089Z,16.56
2022-12-19T04:49:01.624Z,16.74
2022-12-19T04:54:03.050Z,16.86
2022-12-19T04:59:04.465Z,16.66
2022-12-19T05:04:05.928Z,16.79
2022-12-19T05:09:07.330Z,16.59
2022-12-19T05:14:10.553Z,16.88
2022-12-19T05:19:11.955Z,16.73
2022-12-19T05:24:13.576Z,16.86
2022-12-19T05:29:15.264Z,17.01
2022-12-19T05:34:16.721Z,17.08
2022-12-19T05:39:18.766Z,17.08
2022-12-19T05:44:20.219Z,16.96
2022-12-19T05:49:21.638Z,16.97
2022-12-19T05:54:23.166Z,16.74
2022-12-19T05:59:24.571Z,17.05
2022-12-19T06:04:25.969Z,17.04
2022-12-19T06:09:27.509Z,17.17
2022-12-19T06:14:28.876Z,17.05
2022-12-19T06:19:31.163Z,17.06
2022-12-19T06:24:32.567Z,17.16
2022-12-19T06:29:33.945Z,16.77
2022-12-19T06:35:05.170Z,17.22
2022-12-19T06:39:56.717Z,17.07
2022-12-19T06:44:58.158Z,17.07
2022-12-19T06:49:59.555Z,16.89
2022-12-19T06:55:00.929Z,17.07
2022-12-19T07:00:02.482Z,17.38
2022-12-19T07:05:05.210Z,17.23
2022-12-19T07:10:07.946Z,17.09
2022-12-19T07:15:10.419Z,16.81
2022-12-19T07:20:11.927Z,16.95
2022-12-19T07:25:13.308Z,16.52
2022-12-19T07:30:14.686Z,16.64
2022-12-19T07:35:16.479Z,16.66
2022-12-19T07:40:18.222Z,16.54
2022-12-19T07:45:19.869Z,16.52
2022-12-19T07:50:21.460Z,16.62
2022-12-19T07:55:22.866Z,16.69
2022-12-19T08:00:24.260Z,16.81
2022-12-19T08:05:25.669Z,17.15
2022-12-19T08:10:27.075Z,17.40
2022-12-19T08:15:28.467Z,17.36
2022-12-19T08:20:29.890Z,17.27
2022-12-19T08:25:31.274Z,17.29
2022-12-19T08:30:32.728Z,16.99
2022-12-19T08:35:35.555Z,17.09
2022-12-19T08:40:37.001Z,17.15
2022-12-19T08:45:39.062Z,16.96
2022-12-19T08:50:40.511Z,17.33
2022-12-19T08:55:41.901Z,17.22
2022-12-19T09:00:46.526Z,17.38
2022-12-19T09:06:08.214Z,17.15
2022-12-19T09:11:17.180Z,17.35
2022-12-19T09:16:20.161Z,17.50
2022-12-19T09:21:23.168Z,17.55
2022-12-19T09:26:25.073Z,17.45
2022-12-19T09:31:28.831Z,17.82
2022-12-19T09:36:30.295Z,17.30
2022-12-19T09:42:10.479Z,17.33
2022-12-19T09:47:23.752Z,17.38
2022-12-19T09:52:35.025Z,17.55
2022-12-19T09:58:05.904Z,17.30
2022-12-19T10:03:07.616Z,17.90
2022-12-19T10:08:16.150Z,17.99
2022-12-19T10:13:32.697Z,17.87
2022-12-19T10:18:57.463Z,17.97
2022-12-19T10:24:21.364Z,18.44
2022-12-19T10:29:34.780Z,18.92
2022-12-19T10:34:41.678Z,19.14
2022-12-19T10:40:17.637Z,18.35
2022-12-19T10:45:53.252Z,18.13
2022-12-19T10:50:54.643Z,18.65
2022-12-19T10:56:00.849Z,18.66
2022-12-19T11:01:13.407Z,18.28
2022-12-19T11:07:02.491Z,18.41
2022-12-19T11:17:06.134Z,18.11
2022-12-19T11:28:08.244Z,17.73
2022-12-19T11:30:36.957Z,18.42
2022-12-19T11:30:48.851Z,18.01
2022-12-19T11:34:05.820Z,18.47
2022-12-19T11:39:25.752Z,18.47
2022-12-19T11:44:55.667Z,17.95
2022-12-19T11:50:02.997Z,17.85
2022-12-19T11:55:23.779Z,18.05
2022-12-19T12:00:25.170Z,18.14
2022-12-19T12:05:43.160Z,18.01
2022-12-19T12:18:24.264Z,19.18
2022-12-19T12:28:36.268Z,19.01
2022-12-19T12:31:15.525Z,18.79
2022-12-19T12:31:50.784Z,19.06
2022-12-19T12:35:38.193Z,18.81
2022-12-19T12:38:36.978Z,18.86
2022-12-19T12:43:48.795Z,18.99
2022-12-19T12:48:53.903Z,18.91
2022-12-19T12:54:01.053Z,18.95
2022-12-19T12:59:13.139Z,18.64
2022-12-19T13:04:14.351Z,18.31
2022-12-19T13:09:24.807Z,18.37
2022-12-19T13:14:35.625Z,18.42
2022-12-19T13:19:38.597Z,18.50
2022-12-19T13:24:43.970Z,18.62
2022-12-19T13:30:00.637Z,18.74
2022-12-19T13:35:32.581Z,18.81
2022-12-19T13:40:34.169Z,18.98
2022-12-19T13:45:35.764Z,19.36
2022-12-19T13:50:40.039Z,19.53
2022-12-19T13:55:41.454Z,19.61
2022-12-19T14:00:42.878Z,19.92
2022-12-19T14:06:14.631Z,20.14
2022-12-19T14:11:31.400Z,20.06
2022-12-19T14:16:43.302Z,19.92
2022-12-19T14:22:10.657Z,19.99
2022-12-19T14:28:22.084Z,19.94
2022-12-19T14:33:39.211Z,20.04
2022-12-19T14:39:18.447Z,20.05
2022-12-19T14:43:57.045Z,20.13
2022-12-19T14:54:01.594Z,20.30
2022-12-19T14:59:47.663Z,20.64
2022-12-19T15:05:00.395Z,20.72
2022-12-19T15:11:09.504Z,20.81
2022-12-19T15:15:26.011Z,20.87
2022-12-19T15:20:27.422Z,20.95
2022-12-19T15:26:02.143Z,21.07
2022-12-19T15:30:52.768Z,21.27
2022-12-19T15:35:55.196Z,21.12
2022-12-19T15:40:56.585Z,21.22
2022-12-19T15:45:58.394Z,21.37
2022-12-19T15:50:59.780Z,21.56
2022-12-19T15:56:01.190Z,21.52
2022-12-19T16:01:02.832Z,21.79
2022-12-19T16:06:10.411Z,21.56
2022-12-19T16:11:22.817Z,21.65
2022-12-19T16:16:25.105Z,21.56
2022-12-19T16:21:33.617Z,21.80
2022-12-19T16:26:36.008Z,21.68
2022-12-19T16:31:37.457Z,21.59
2022-12-19T16:36:38.864Z,21.52
2022-12-19T16:41:42.662Z,21.63
2022-12-19T16:46:50.355Z,21.63
2022-12-19T16:51:52.551Z,21.46
2022-12-19T16:56:54.082Z,21.69
2022-12-19T17:01:55.756Z,21.66
2022-12-19T17:06:57.327Z,22.03
2022-12-19T17:12:00.003Z,22.08
2022-12-19T17:17:01.477Z,21.92
2022-12-19T17:22:02.902Z,21.92
2022-12-19T17:27:04.278Z,22.01
2022-12-19T17:32:08.698Z,21.78
2022-12-19T17:37:13.688Z,21.91
2022-12-19T17:42:24.641Z,21.81
2022-12-19T17:47:26.059Z,22.02
2022-12-19T17:52:27.435Z,21.99
2022-12-19T17:57:28.821Z,21.95
2022-12-19T18:02:30.328Z,22.04
2022-12-19T18:07:31.820Z,22.08
2022-12-19T18:12:33.302Z,22.04
2022-12-19T18:17:34.982Z,22.13
2022-12-19T18:22:36.439Z,21.92
2022-12-19T18:27:37.825Z,22.18
2022-12-19T18:32:39.209Z,22.05
2022-12-19T18:37:40.615Z,22.05
2022-12-19T18:42:43.036Z,22.19
2022-12-19T18:47:49.851Z,22.07
2022-12-19T18:52:53.087Z,22.03
2022-12-19T18:57:55.210Z,22.27
2022-12-19T19:03:04.206Z,22.26
2022-12-19T19:08:15.615Z,22.42
2022-12-19T19:13:17.287Z,22.28
2022-12-19T19:18:30.163Z,22.50
2022-12-19T19:23:43.320Z,22.17
2022-12-19T19:28:50.313Z,22.57
2022-12-19T19:33:59.784Z,22.48
2022-12-19T19:39:01.948Z,22.43
2022-12-19T19:44:03.343Z,22.58
2022-12-19T19:49:04.792Z,22.61
2022-12-19T19:54:06.780Z,22.51
2022-12-19T19:59:08.190Z,22.48
2022-12-19T20:04:09.679Z,22.30
2022-12-19T20:09:11.072Z,22.45
2022-12-19T20:14:12.450Z,22.31
2022-12-19T20:19:15.544Z,22.47
2022-12-19T20:24:17.097Z,22.57
2022-12-19T20:29:18.477Z,22.39
2022-12-19T20:34:20.036Z,22.19
2022-12-19T20:39:24.397Z,22.38
2022-12-19T20:44:25.791Z,22.37
2022-12-19T20:49:27.250Z,22.10
2022-12-19T20:54:28.686Z,22.08
2022-12-19T20:59:30.096Z,22.19
2022-12-19T21:04:31.933Z,22.24
2022-12-19T21:09:33.497Z,22.18
2022-12-19T21:14:34.882Z,22.19
2022-12-19T21:19:36.308Z,21.85
2022-12-19T21:24:37.678Z,21.91
2022-12-19T21:29:39.321Z,21.85
2022-12-19T21:34:40.696Z,21.64
2022-12-19T21:39:42.090Z,21.50
2022-12-19T21:44:43.544Z,21.51
2022-12-19T21:49:44.947Z,21.74
2022-12-19T21:54:46.349Z,21.83
2022-12-19T21:59:47.727Z,21.76
2022-12-19T22:04:49.648Z,21.61
2022-12-19T22:09:51.050Z,21.85
2022-12-19T22:14:52.486Z,21.88
2022-12-19T22:19:53.854Z,21.87
2022-12-19T22:24:55.293Z,21.64
2022-12-19T22:29:57.277Z,21.92
2022-12-19T22:34:58.691Z,21.62
2022-12-19T22:40:00.245Z,21.63
2022-12-19T22:45:01.931Z,21.46
2022-12-19T22:50:03.554Z,21.71
2022-12-19T22:55:06.041Z,21.59
2022-12-19T23:00:09.839Z,21.70
2022-12-19T23:05:11.280Z,21.59
2022-12-19T23:10:12.681Z,21.58
2022-12-19T23:15:14.091Z,21.50
2022-12-19T23:20:15.590Z,21.70
2022-12-19T23:25:17.014Z,21.64
2022-12-19T23:30:18.486Z,21.77
2022-12-19T23:35:19.873Z,21.50
2022-12-19T23:40:21.242Z,21.48
2022-12-19T23:45:22.738Z,21.38
2022-12-19T23:50:25.027Z,21.58
2022-12-19T23:55:26.586Z,21.53
